createdAt,value
2023-02-11T08:45:01.584Z,1023.4405828822157
2023-02-11T09:00:01.193Z,1023.7517165984468
2023-02-11T09:15:01.859Z,1024.150338114899
2023-02-11T09:30:01.578Z,1024.258752846846
2023-02-11T09:45:01.265Z,1024.3553042810397
2023-02-11T10:00:00.878Z,1024.6132242946053
2023-02-11T10:15:01.576Z,1024.8090961130706
2023-02-11T10:30:01.291Z,1024.957347539943
2023-02-11T10:45:00.893Z,1024.9503393432292
2023-02-11T11:00:01.568Z,1024.8278982271897
2023-02-11T11:15:01.318Z,1024.8546064024615
2023-02-11T11:30:00.983Z,1024.7639595871176
2023-02-11T11:45:01.589Z,1024.7628909058012
2023-02-11T12:00:01.198Z,1024.5818085595843
2023-02-11T12:15:00.824Z,1024.623845710524
2023-02-11T12:30:01.443Z,1024.7466787200203
2023-02-11T12:45:01.096Z,1024.7182310632602
2023-02-11T13:00:00.710Z,1024.7110383650008
2023-02-11T13:15:01.379Z,1024.698886162506
2023-02-11T13:30:04.050Z,1024.7355396991236
2023-02-11T13:45:01.076Z,1024.6930318522072
2023-02-11T14:00:01.883Z,1024.641685249757
2023-02-11T14:15:03.423Z,1024.6164643427928
2023-02-11T14:30:01.622Z,1024.7871301838893
2023-02-11T14:45:02.285Z,1024.8465916073476
2023-02-11T15:00:02.012Z,1024.8763459531076
2023-02-11T15:15:01.750Z,1025.0653955961343
2023-02-11T15:30:01.419Z,1025.0974040590406
2023-02-11T15:45:02.076Z,1025.248733128889
2023-02-11T16:00:01.842Z,1025.3067877459546
2023-02-11T16:15:01.651Z,1025.2939424452998
2023-02-11T16:30:02.360Z,1025.552980102388
2023-02-11T16:45:02.050Z,1025.8095299713711
2023-02-11T17:00:01.722Z,1025.839981673597
2023-02-11T17:15:02.427Z,1025.92801389399
2023-02-11T17:30:02.131Z,1025.9330000878465
2023-02-11T17:45:01.744Z,1026.045936617635
2023-02-11T18:00:02.391Z,1026.1554213709908
2023-02-11T18:15:02.021Z,1026.4881208787467
2023-02-11T18:30:01.754Z,1026.5268093427467
2023-02-11T18:45:02.420Z,1026.6178715134665
2023-02-11T19:00:02.049Z,1026.846928547122
2023-02-11T19:15:01.687Z,1026.881529476181
2023-02-11T19:30:02.362Z,1027.1687863466448
2023-02-11T19:45:02.038Z,1027.2777666479162
2023-02-11T20:00:01.670Z,1027.3926971706749
2023-02-11T20:15:02.301Z,1027.5424606211957
2023-02-11T20:30:02.002Z,1027.5796567848026
2023-02-11T20:45:01.658Z,1027.3752475606168
2023-02-11T21:00:02.305Z,1027.5373775493817
2023-02-11T21:15:01.982Z,1027.528843829519
2023-02-11T21:30:01.721Z,1027.7569354966936
2023-02-11T21:45:01.425Z,1027.981523664078
2023-02-11T22:00:02.032Z,1028.0879120530049
2023-02-11T22:15:01.675Z,1028.1879814186636
2023-02-11T22:30:01.370Z,1028.3568132376256
2023-02-11T22:45:02.001Z,1028.4100127965107
2023-02-11T23:00:01.600Z,1028.5644024039532
2023-02-11T23:15:03.852Z,1028.580974770294
2023-02-11T23:30:01.605Z,1028.7661289398213
2023-02-11T23:45:01.298Z,1028.8158228384
